ADDS METAR Data INFO
IDs: Format: Raw Decoded Include TAF

Data at: 1919 UTC 16 Aug 2017

KF46 161915Z AUTO 21012G22KT 10SM SCT047 SCT055 34/23 A2992 RMK AO2 T03350231
KF46 161855Z AUTO 20016G21KT 10SM SCT043 33/23 A2992 RMK AO2 T03300227
KF46 161835Z AUTO 21015G21KT 10SM SCT041 33/23 A2993 RMK AO2 T03320232
KF46 161815Z AUTO 22012G21KT 10SM SCT041 33/23 A2993 RMK AO2 T03250233
KF46 161755Z AUTO 22016G21KT 10SM SCT037 SCT044 33/23 A2994 RMK AO2 T03260233 10326 20253
KF46 161735Z AUTO 22013G21KT 10SM BKN037 32/23 A2995 RMK AO2 T03210234
KF46 161715Z AUTO 21016G21KT 10SM BKN033 BKN040 32/23 A2995 RMK AO2 LTG DSNT N T03150233
KF46 161655Z AUTO 22013G19KT 10SM BKN033 BKN040 31/24 A2996 RMK AO2 LTG DSNT N T03120236
KF46 161635Z AUTO 21012G19KT 10SM SCT031 31/24 A2996 RMK AO2 LTG DSNT N T03110238
KF46 161615Z AUTO 21015G21KT 10SM SCT027 BKN033 30/24 A2996 RMK AO2 T03020237
KF46 161555Z AUTO 20016G23KT 10SM BKN025 BKN033 30/24 A2996 RMK AO2 T03020239
KF46 161535Z AUTO 22011G27KT 10SM SCT021 BKN029 30/24 A2996 RMK AO2 T02960241
KF46 161515Z AUTO 21015G21KT 10SM SCT019 BKN027 BKN032 29/24 A2996 RMK AO2 T02900239
KF46 161455Z AUTO 21016G25KT 10SM BKN019 OVC024 28/24 A2996 RMK AO2 T02830238
KF46 161435Z AUTO 21014G26KT 10SM BKN015 OVC024 28/24 A2996 RMK AO2 T02790239
KF46 161415Z AUTO 20014G24KT 10SM OVC015 27/24 A2995 RMK AO2 T02720240
KF46 161355Z AUTO 21014G22KT 10SM OVC017 27/24 A2995 RMK AO2 T02720241
KF46 161335Z AUTO 19009G24KT 10SM BKN017 OVC025 27/24 A2994 RMK AO2 T02690241
KF46 161315Z AUTO 20017G23KT 10SM BKN022 OVC027 26/24 A2994 RMK AO2 T02610240
KF46 161255Z AUTO 20011G15KT 10SM BKN022 OVC027 26/24 A2993 RMK AO2 T02570240
KF46 161235Z AUTO 19009KT 10SM OVC020 26/24 A2993 RMK AO2 T02550237
KF46 161215Z AUTO 19009KT 10SM BKN020 26/24 A2993 RMK AO2 T02550236
KF46 161155Z AUTO 19010G22KT 10SM OVC020 25/24 A2992 RMK AO2 T02540235 10280 20253
KF46 161135Z AUTO 20009G20KT 10SM BKN020 26/23 A2991 RMK AO2 T02550233
KF46 161115Z AUTO 20015G21KT 10SM SCT020 26/23 A2990 RMK AO2 T02550231
KF46 161055Z AUTO 21010G21KT 10SM CLR 26/23 A2990 RMK AO2 T02550228
KF46 161035Z AUTO 20010G22KT 10SM CLR 26/23 A2989 RMK AO2 T02580226
KF46 161015Z AUTO 19010G20KT 10SM CLR 26/23 A2988 RMK AO2 T02610225
KF46 160955Z AUTO 20009G23KT 10SM CLR 27/23 A2989 RMK AO2 T02650225
KF46 160935Z AUTO 20009G18KT 10SM CLR 27/22 A2988 RMK AO2 T02680224
KF46 160915Z AUTO 19009G24KT 10SM CLR 27/22 A2988 RMK AO2 T02700223
KF46 160855Z AUTO 19009KT 10SM CLR 27/22 A2988 RMK AO2 T02700223
KF46 160835Z AUTO 20008KT 10SM CLR 27/22 A2988 RMK AO2 T02660221
KF46 160815Z AUTO 19010G15KT 10SM CLR 27/22 A2987 RMK AO2 T02670220
KF46 160755Z AUTO 19010G15KT 10SM SCT120 27/22 A2987 RMK AO2 T02700218
KF46 160735Z AUTO 19011KT 10SM SCT120 27/22 A2987 RMK AO2 T02720216
KF46 160715Z AUTO 19011G15KT 10SM CLR 28/22 A2987 RMK AO2 T02750216
KF46 160655Z AUTO 19011KT 10SM CLR 28/22 A2987 RMK AO2 T02760216
KF46 160635Z AUTO 18010G16KT 10SM CLR 28/22 A2987 RMK AO2 T02770216
KF46 160615Z AUTO 18010G17KT 10SM CLR 28/22 A2987 RMK AO2 T02780216
KF46 160555Z AUTO 19011G16KT 10SM CLR 28/22 A2987 RMK AO2 T02800217 10326 20277 403420255
KF46 160535Z AUTO 18010G16KT 10SM CLR 28/22 A2988 RMK AO2 T02810220
KF46 160515Z AUTO 17008G14KT 10SM CLR 28/22 A2988 RMK AO2 T02810221
KF46 160455Z AUTO 17007KT 10SM CLR 28/22 A2988 RMK AO2 T02810224
KF46 160435Z AUTO 16006KT 10SM CLR 28/23 A2987 RMK AO2 T02780226
KF46 160415Z AUTO 15005KT 10SM CLR 28/23 A2987 RMK AO2 T02770228
KF46 160355Z AUTO 13006KT 10SM CLR 28/23 A2987 RMK AO2 T02780228
KF46 160335Z AUTO 14007KT 10SM CLR 28/23 A2986 RMK AO2 T02820227
KF46 160315Z AUTO 14006KT 10SM CLR 29/23 A2986 RMK AO2 T02850227
KF46 160255Z AUTO 15006KT 10SM CLR 29/23 A2984 RMK AO2 T02870227
KF46 160235Z AUTO 15006KT 10SM CLR 29/23 A2984 RMK AO2 T02900228
KF46 160215Z AUTO 16007KT 120V180 10SM CLR 29/23 A2983 RMK AO2 T02910227
KF46 160155Z AUTO 16007KT 10SM CLR 29/23 A2981 RMK AO2 T02930227
KF46 160135Z AUTO 16006KT 10SM CLR 30/22 A2981 RMK AO2 LTG DSNT N T02960223
KF46 160115Z AUTO 17008KT 10SM CLR 30/23 A2980 RMK AO2 T03010225
KF46 160055Z AUTO 17008KT 10SM CLR 31/22 A2980 RMK AO2 T03120223
KF46 160035Z AUTO 17008KT 10SM CLR 32/23 A2980 RMK AO2 LTG DSNT N T03170228
KF46 160015Z AUTO 15009G16KT 10SM CLR 32/23 A2979 RMK AO2 T03230230
KF46 152355Z AUTO 14012G15KT 110V190 10SM CLR 33/24 A2979 RMK AO2 T03260237 10342 20298
KF46 152335Z AUTO 17012G17KT 130V190 10SM CLR 33/23 A2979 RMK AO2 T03310229
KF46 152315Z AUTO 14010KT 120V190 10SM CLR 33/23 A2979 RMK AO2 T03320231
KF46 152255Z AUTO 19011KT 10SM CLR 34/23 A2979 RMK AO2 T03350227
KF46 152235Z AUTO 22008G15KT 10SM CLR 34/22 A2980 RMK AO2 T03380220
KF46 152215Z AUTO 21007KT 10SM CLR 34/23 A2981 RMK AO2 T03390225
KF46 152155Z AUTO 19008KT 10SM CLR 34/22 A2982 RMK AO2 T03400221
KF46 152135Z AUTO 19010KT 10SM CLR 34/22 A2982 RMK AO2 T03410222
KF46 152115Z AUTO 19009KT 10SM CLR 33/23 A2983 RMK AO2 T03330228
KF46 152055Z AUTO 20008G16KT 10SM SCT047 33/23 A2983 RMK AO2 T03330229
KF46 152035Z AUTO 22007G15KT 10SM CLR 33/23 A2984 RMK AO2 T03340228
KF46 152015Z AUTO 21008G16KT 10SM CLR 33/22 A2985 RMK AO2 T03270221
KF46 151955Z AUTO 20014G19KT 10SM CLR 33/22 A2985 RMK AO2 T03260221
KF46 151935Z AUTO 19008G18KT 120V210 10SM CLR 32/23 A2986 RMK AO2 T03170230
KF46 151915Z AUTO 21010G20KT 120V220 10SM SCT032 31/23 A2987 RMK AO2 T03120228
KF46 151855Z AUTO 20011G18KT 10SM CLR 31/24 A2988 RMK AO2 T03110236
KF46 151835Z AUTO 22009G19KT 170V230 10SM SCT029 31/24 A2989 RMK AO2 T03060235
KF46 151815Z AUTO 23007G17KT 10SM BKN027 BKN032 30/23 A2990 RMK AO2 T03010234
KF46 151755Z AUTO 20009G19KT 160V240 10SM SCT025 30/24 A2990 RMK AO2 T03040237 10304 20255
KF46 151735Z AUTO 18008G16KT 10SM SCT025 30/24 A2990 RMK AO2 T02950235
KF46 151715Z AUTO 20010G16KT 10SM CLR 29/23 A2991 RMK AO2 T02900233
KF46 151655Z AUTO 21009G15KT 10SM SCT023 29/23 A2991 RMK AO2 T02880231
KF46 151635Z AUTO 19011G15KT 10SM SCT021 SCT110 29/24 A2991 RMK AO2 T02900235
KF46 151615Z AUTO 21012KT 10SM BKN019 BKN110 29/23 A2991 RMK AO2 T02860233
KF46 151555Z AUTO 21008KT 10SM SCT017 BKN110 28/24 A2991 RMK AO2 T02800236
KF46 151535Z AUTO 20008KT 10SM SCT017 BKN110 27/24 A2991 RMK AO2 T02710235
KF46 151515Z AUTO 20008G18KT 10SM SCT017 SCT100 27/24 A2990 RMK AO2 T02710235
KF46 151455Z AUTO 21013G25KT 10SM SCT017 27/24 A2989 RMK AO2 T02710235
KF46 151435Z AUTO 20013G23KT 10SM CLR 27/24 A2988 RMK AO2 T02710235
KF46 151415Z AUTO 20013G23KT 10SM SCT110 27/24 A2988 RMK AO2 T02680235
KF46 151355Z AUTO 21011G19KT 10SM BKN100 27/23 A2988 RMK AO2 T02660233
KF46 151335Z AUTO 20011G18KT 10SM SCT100 26/23 A2987 RMK AO2 T02630233
KF46 151315Z AUTO 20012G21KT 10SM SCT110 26/23 A2987 RMK AO2 T02610232
KF46 151255Z AUTO 20008KT 10SM SCT110 26/23 A2986 RMK AO2 T02580231
KF46 151235Z AUTO 20009KT 10SM SCT110 26/23 A2986 RMK AO2 T02550230
KF46 151215Z AUTO 19008KT 10SM CLR 26/23 A2986 RMK AO2 T02550229
KF46 151155Z AUTO 20007KT 10SM CLR 26/23 A2986 RMK AO2 70045 T02560226 10269 20256
KF46 151135Z AUTO 20007KT 10SM CLR 26/22 A2985 RMK AO2 T02560223
KF46 151115Z AUTO 20007KT 10SM CLR 26/22 A2985 RMK AO2 T02570222
KF46 151055Z AUTO 20007KT 10SM CLR 26/22 A2984 RMK AO2 T02600221
KF46 151035Z AUTO 21008KT 10SM CLR 26/22 A2984 RMK AO2 T02610219
KF46 151015Z AUTO 21008G15KT 10SM CLR 26/22 A2983 RMK AO2 T02630218
KF46 150955Z AUTO 20009G24KT 10SM CLR 27/22 A2983 RMK AO2 T02650216
KF46 150935Z AUTO 20008G22KT 10SM CLR 27/22 A2983 RMK AO2 T02660217
KF46 150915Z AUTO 20009G22KT 10SM CLR 27/22 A2983 RMK AO2 T02660218
KF46 150855Z AUTO 20010G19KT 10SM CLR 27/22 A2982 RMK AO2 T02680217
KF46 150835Z AUTO 20009G16KT 10SM CLR 27/22 A2982 RMK AO2 T02650221
KF46 150815Z AUTO 20008G15KT 10SM CLR 27/22 A2982 RMK AO2 T02680221
KF46 150755Z AUTO 20009G15KT 10SM CLR 27/22 A2982 RMK AO2 T02680222
KF46 150735Z AUTO 19010KT 10SM CLR 27/23 A2981 RMK AO2 T02680225